createdAt,value
2022-08-18T00:02:19.488Z,94489.28
2022-08-18T00:04:48.969Z,94488.19
2022-08-18T00:07:31.673Z,94493.84
2022-08-18T00:10:00.744Z,94487.97
2022-08-18T00:12:38.061Z,94497.38
2022-08-18T00:15:10.362Z,94502.22
2022-08-18T00:17:38.286Z,94506.28
2022-08-18T00:20:11.793Z,94487.34
2022-08-18T00:22:42.381Z,94500.19
2022-08-18T00:25:11.777Z,94504.19
2022-08-18T00:27:41.315Z,94498.63
2022-08-18T00:30:19.253Z,94495.75
2022-08-18T00:32:55.454Z,94500.06
2022-08-18T00:35:36.467Z,94501.44
2022-08-18T00:38:07.762Z,94503.09
2022-08-18T00:40:46.395Z,94494.00
2022-08-18T00:43:22.922Z,94497.28
2022-08-18T00:45:50.122Z,94491.16
2022-08-18T00:48:17.076Z,94499.78
2022-08-18T00:50:54.762Z,94496.88
2022-08-18T00:53:49.834Z,94488.38
2022-08-18T00:56:29.201Z,94486.03
2022-08-18T00:59:07.182Z,94488.47
2022-08-18T01:01:38.049Z,94487.75
2022-08-18T01:04:42.450Z,94489.94
2022-08-18T01:07:20.446Z,94493.41
2022-08-18T01:09:52.217Z,94495.28
2022-08-18T01:12:44.895Z,94491.50
2022-08-18T01:15:08.486Z,94493.63
2022-08-18T01:18:14.510Z,94494.41
2022-08-18T01:21:16.524Z,94494.09
2022-08-18T01:23:45.377Z,94493.28
2022-08-18T01:26:13.973Z,94489.75
2022-08-18T01:28:45.018Z,94487.78
2022-08-18T01:31:30.513Z,94481.88
2022-08-18T01:33:57.781Z,94474.59
2022-08-18T01:36:25.189Z,94477.00
2022-08-18T01:38:53.664Z,94476.63
2022-08-18T01:41:29.531Z,94472.59
2022-08-18T01:44:02.897Z,94473.63
2022-08-18T01:46:33.759Z,94467.41
2022-08-18T01:49:03.647Z,94471.41
2022-08-18T01:51:38.795Z,94467.34
2022-08-18T01:54:13.722Z,94469.44
2022-08-18T01:56:43.274Z,94453.91
2022-08-18T01:59:14.030Z,94456.00
2022-08-18T02:01:48.168Z,94457.06
2022-08-18T02:04:36.547Z,94454.91
2022-08-18T02:07:08.703Z,94451.63
2022-08-18T02:09:38.660Z,94444.38
2022-08-18T02:12:07.641Z,94449.69
2022-08-18T02:14:36.220Z,94447.50
2022-08-18T02:17:07.233Z,94440.28
2022-08-18T02:19:38.403Z,94439.19
2022-08-18T02:22:08.268Z,94442.66
2022-08-18T02:24:36.167Z,94441.06
2022-08-18T02:27:03.671Z,94438.91
2022-08-18T02:29:31.399Z,94433.03
2022-08-18T02:31:58.425Z,94437.00
2022-08-18T02:34:26.242Z,94435.63
2022-08-18T02:36:53.632Z,94424.13
2022-08-18T02:39:21.408Z,94436.94
2022-08-18T02:41:48.607Z,94434.28
2022-08-18T02:44:15.617Z,94427.59
2022-08-18T02:46:43.380Z,94433.47
2022-08-18T02:49:10.757Z,94440.41
2022-08-18T02:51:38.831Z,94428.09
2022-08-18T02:54:11.453Z,94427.31
2022-08-18T02:56:42.402Z,94419.28
2022-08-18T02:59:14.250Z,94434.28
2022-08-18T03:01:46.474Z,94429.78
2022-08-18T03:04:21.141Z,94420.66
2022-08-18T03:06:50.345Z,94418.03
2022-08-18T03:09:18.872Z,94419.63
2022-08-18T03:11:46.889Z,94421.81
2022-08-18T03:14:15.909Z,94421.59
2022-08-18T03:16:53.991Z,94422.94
2022-08-18T03:19:30.054Z,94415.81
2022-08-18T03:22:02.933Z,94415.81
2022-08-18T03:24:32.358Z,94417.19
2022-08-18T03:27:01.617Z,94421.31
2022-08-18T03:29:32.455Z,94424.56
2022-08-18T03:32:02.185Z,94418.78
2022-08-18T03:34:30.306Z,94422.56
2022-08-18T03:36:57.556Z,94426.69
2022-08-18T03:39:25.115Z,94424.63
2022-08-18T03:41:59.809Z,94430.06
2022-08-18T03:44:36.948Z,94430.19
2022-08-18T03:47:09.577Z,94426.22
2022-08-18T03:49:37.974Z,94422.00
2022-08-18T03:52:09.620Z,94432.22
2022-08-18T03:54:39.091Z,94425.31
2022-08-18T03:57:10.601Z,94429.13
2022-08-18T03:59:41.452Z,94426.78
2022-08-18T04:02:09.006Z,94431.66
2022-08-18T04:04:36.777Z,94423.72
2022-08-18T04:07:14.257Z,94428.00
2022-08-18T04:09:42.086Z,94425.91
2022-08-18T04:12:16.328Z,94433.69
2022-08-18T04:14:48.849Z,94421.47
2022-08-18T04:17:24.823Z,94428.16
2022-08-18T04:19:56.229Z,94436.75
2022-08-18T04:22:25.209Z,94438.13
2022-08-18T04:24:53.603Z,94449.06
2022-08-18T04:27:22.149Z,94440.53
2022-08-18T04:29:49.720Z,94445.88
2022-08-18T04:32:17.225Z,94455.75
2022-08-18T04:34:44.450Z,94463.50
2022-08-18T04:37:12.373Z,94462.94
2022-08-18T04:39:39.714Z,94465.06
2022-08-18T04:42:07.497Z,94470.66
2022-08-18T04:44:40.173Z,94471.13
2022-08-18T04:47:09.130Z,94483.13
2022-08-18T04:49:37.489Z,94487.88
2022-08-18T04:52:39.658Z,94488.63
2022-08-18T04:55:10.187Z,94500.03
2022-08-18T04:57:37.604Z,94506.09
2022-08-18T05:00:08.288Z,94512.44
2022-08-18T05:02:36.007Z,94518.19
2022-08-18T05:05:04.510Z,94509.78
2022-08-18T05:07:32.212Z,94511.56
2022-08-18T05:09:59.666Z,94509.06
2022-08-18T05:12:27.014Z,94500.75
2022-08-18T05:14:57.285Z,94512.13
2022-08-18T05:17:30.440Z,94507.78
2022-08-18T05:20:01.431Z,94507.53
2022-08-18T05:22:31.585Z,94508.84
2022-08-18T05:25:00.595Z,94505.06
2022-08-18T05:27:33.561Z,94497.81
2022-08-18T05:30:00.970Z,94497.03
2022-08-18T05:32:47.589Z,94494.38
2022-08-18T05:35:32.416Z,94487.41
2022-08-18T05:38:43.659Z,94483.91
2022-08-18T05:41:35.307Z,94493.56
2022-08-18T05:44:04.654Z,94491.69
2022-08-18T05:46:55.554Z,94491.94
2022-08-18T05:49:26.640Z,94504.19
2022-08-18T05:52:00.337Z,94511.97
2022-08-18T05:54:57.400Z,94505.28
2022-08-18T05:57:28.430Z,94503.91
2022-08-18T05:59:56.091Z,94506.56
2022-08-18T06:02:46.194Z,94508.66
2022-08-18T06:05:27.353Z,94504.88
2022-08-18T06:08:03.036Z,94514.69
2022-08-18T06:10:31.289Z,94514.94
2022-08-18T06:13:01.772Z,94506.84
2022-08-18T06:16:10.569Z,94499.28
2022-08-18T06:18:50.736Z,94504.09
2022-08-18T06:21:44.048Z,94502.13
2022-08-18T06:24:45.964Z,94505.53
2022-08-18T06:27:40.323Z,94508.13
2022-08-18T06:30:32.685Z,94515.03
2022-08-18T06:33:46.115Z,94506.94
2022-08-18T06:36:33.222Z,94514.03
2022-08-18T06:39:23.981Z,94523.63
2022-08-18T06:41:53.636Z,94527.53
2022-08-18T06:44:38.282Z,94524.50
2022-08-18T06:47:41.077Z,94523.03
2022-08-18T06:50:20.946Z,94523.75
2022-08-18T06:53:07.945Z,94547.63
2022-08-18T06:55:55.266Z,94542.91
2022-08-18T06:58:30.592Z,94555.88
2022-08-18T07:01:06.794Z,94550.84
2022-08-18T07:03:36.920Z,94560.03
2022-08-18T07:06:05.903Z,94562.22
2022-08-18T07:08:43.500Z,94555.88
2022-08-18T07:11:34.272Z,94559.97
2022-08-18T07:14:21.860Z,94560.28
2022-08-18T07:16:59.299Z,94559.50
2022-08-18T07:19:31.251Z,94555.50
2022-08-18T07:22:17.010Z,94561.47
2022-08-18T07:24:50.839Z,94561.25
2022-08-18T07:27:41.072Z,94568.50
2022-08-18T07:30:30.726Z,94558.06
2022-08-18T07:33:24.181Z,94556.72
2022-08-18T07:35:57.140Z,94567.72
2022-08-18T07:38:57.146Z,94579.06
2022-08-18T07:41:43.945Z,94567.84
2022-08-18T07:44:28.263Z,94570.31
2022-08-18T07:47:03.845Z,94567.66
2022-08-18T07:49:46.069Z,94566.16
2022-08-18T07:52:46.906Z,94553.53
2022-08-18T07:55:30.598Z,94547.41
2022-08-18T07:58:40.188Z,94552.22
2022-08-18T08:01:33.533Z,94548.16
2022-08-18T08:04:26.272Z,94552.78
2022-08-18T08:07:24.878Z,94550.00
2022-08-18T08:10:13.461Z,94552.91
2022-08-18T08:13:06.126Z,94555.00
2022-08-18T08:15:54.536Z,94532.31
2022-08-18T08:18:28.810Z,94529.47
2022-08-18T08:21:01.943Z,94521.09
2022-08-18T08:24:01.093Z,94510.00
2022-08-18T08:26:54.144Z,94512.41
2022-08-18T08:29:48.685Z,94504.78
2022-08-18T08:32:35.207Z,94500.94
2022-08-18T08:35:48.889Z,94495.81
2022-08-18T08:38:48.359Z,94473.56
2022-08-18T08:41:53.650Z,94462.91
2022-08-18T08:45:23.446Z,94458.09
2022-08-18T08:48:09.034Z,94451.03
2022-08-18T08:51:00.356Z,94440.94
2022-08-18T08:53:54.283Z,94440.84
2022-08-18T08:56:31.274Z,94443.13
2022-08-18T08:59:10.447Z,94443.13
2022-08-18T09:01:56.568Z,94441.25
2022-08-18T09:04:54.741Z,94442.78
2022-08-18T09:08:15.916Z,94435.09
2022-08-18T09:11:19.338Z,94450.28
2022-08-18T09:14:25.515Z,94456.28
2022-08-18T09:17:34.564Z,94447.19
2022-08-18T09:20:12.426Z,94448.06
2022-08-18T09:23:22.159Z,94455.41
2022-08-18T09:25:56.477Z,94452.91
2022-08-18T09:28:57.702Z,94464.78
2022-08-18T09:31:31.645Z,94477.56
2022-08-18T09:34:22.354Z,94479.03
2022-08-18T09:37:12.313Z,94478.78
2022-08-18T09:40:12.656Z,94469.38
2022-08-18T09:43:11.462Z,94462.34
2022-08-18T09:45:59.584Z,94452.19
2022-08-18T09:48:44.057Z,94439.66
2022-08-18T09:51:41.221Z,94432.09
2022-08-18T09:54:13.625Z,94435.13
2022-08-18T09:59:36.828Z,94444.88
2022-08-18T10:02:18.826Z,94449.28
2022-08-18T10:04:51.468Z,94435.69
2022-08-18T10:07:21.440Z,94450.16
2022-08-18T10:11:01.118Z,94435.13
2022-08-18T10:17:21.499Z,94419.38
2022-08-18T10:20:04.822Z,94427.25
2022-08-18T10:22:38.606Z,94414.25
2022-08-18T10:25:22.739Z,94424.84
2022-08-18T10:27:57.260Z,94419.88
2022-08-18T10:30:56.614Z,94428.47
2022-08-18T10:34:19.363Z,94427.31
2022-08-18T10:36:58.860Z,94423.16
2022-08-18T10:39:39.789Z,94420.19
2022-08-18T10:43:26.956Z,94423.69
2022-08-18T10:46:24.359Z,94428.97
2022-08-18T10:48:58.765Z,94422.94
2022-08-18T10:51:59.260Z,94431.97
2022-08-18T10:55:03.063Z,94420.31
2022-08-18T10:58:10.656Z,94422.78
2022-08-18T11:00:48.429Z,94420.59
2022-08-18T11:03:51.412Z,94417.19
2022-08-18T11:06:27.245Z,94434.81
2022-08-18T11:09:00.902Z,94436.94
2022-08-18T11:11:59.787Z,94433.19
2022-08-18T11:14:47.143Z,94439.59
2022-08-18T11:17:50.658Z,94433.47
2022-08-18T11:20:21.062Z,94421.88
2022-08-18T11:23:00.421Z,94427.41
2022-08-18T11:25:31.248Z,94426.34
2022-08-18T11:27:59.754Z,94425.31
2022-08-18T11:30:35.182Z,94421.50
2022-08-18T11:33:04.313Z,94430.66
2022-08-18T11:35:45.694Z,94433.09
2022-08-18T11:38:21.079Z,94424.34
2022-08-18T11:41:13.024Z,94426.88
2022-08-18T11:43:43.149Z,94420.09
2022-08-18T11:46:37.860Z,94417.53
2022-08-18T11:49:33.818Z,94419.25
2022-08-18T11:52:29.393Z,94413.63
2022-08-18T11:55:14.555Z,94414.22
2022-08-18T11:57:59.117Z,94426.78
2022-08-18T12:00:48.817Z,94422.63
2022-08-18T12:03:31.779Z,94428.78
2022-08-18T12:06:20.218Z,94423.84
2022-08-18T12:09:30.589Z,94415.13
2022-08-18T12:12:07.241Z,94410.66
2022-08-18T12:15:44.299Z,94407.22
2022-08-18T12:18:26.101Z,94413.38
2022-08-18T12:21:06.069Z,94397.94
2022-08-18T12:23:44.403Z,94390.97
2022-08-18T12:26:27.262Z,94382.78
2022-08-18T12:29:01.174Z,94372.34
2022-08-18T12:31:41.963Z,94366.69
2022-08-18T12:34:25.125Z,94365.09
2022-08-18T12:36:57.959Z,94353.41
2022-08-18T12:39:25.524Z,94342.81
2022-08-18T12:41:52.625Z,94338.06
2022-08-18T12:44:20.623Z,94338.69
2022-08-18T12:46:49.293Z,94325.47
2022-08-18T12:49:23.987Z,94321.94
2022-08-18T12:51:54.588Z,94312.84
2022-08-18T12:54:23.265Z,94315.41
2022-08-18T12:56:56.139Z,94313.25
2022-08-18T12:59:25.756Z,94305.91
2022-08-18T13:01:58.585Z,94322.06
2022-08-18T13:04:27.806Z,94326.41
2022-08-18T13:07:00.097Z,94327.97
2022-08-18T13:09:34.208Z,94315.38
2022-08-18T13:12:14.951Z,94331.38
2022-08-18T13:14:44.499Z,94321.81
2022-08-18T13:17:29.696Z,94327.19
2022-08-18T13:20:09.253Z,94325.69
2022-08-18T13:22:40.598Z,94338.38
2022-08-18T13:25:28.818Z,94346.34
2022-08-18T13:28:01.741Z,94346.25
2022-08-18T13:30:31.226Z,94349.53
2022-08-18T13:33:05.274Z,94345.22
2022-08-18T13:35:52.309Z,94356.19
2022-08-18T13:38:27.382Z,94361.19
2022-08-18T13:40:59.181Z,94365.66
2022-08-18T13:43:39.384Z,94369.78
2022-08-18T13:46:09.290Z,94369.16
2022-08-18T13:48:41.564Z,94356.72
2022-08-18T13:51:11.815Z,94357.91
2022-08-18T13:53:50.948Z,94363.19
2022-08-18T13:56:31.167Z,94344.72
2022-08-18T13:58:59.129Z,94355.28
2022-08-18T14:01:44.973Z,94354.81
2022-08-18T14:04:20.526Z,94354.69
2022-08-18T14:06:56.009Z,94339.34
2022-08-18T14:09:36.527Z,94335.59
2022-08-18T14:12:23.222Z,94331.84
2022-08-18T14:14:55.074Z,94323.88
2022-08-18T14:17:24.513Z,94313.59
2022-08-18T14:20:15.012Z,94324.34
2022-08-18T14:23:11.518Z,94327.63
2022-08-18T14:25:57.411Z,94333.94
2022-08-18T14:28:31.644Z,94329.56
2022-08-18T14:31:01.988Z,94327.75
2022-08-18T14:33:50.846Z,94325.75
2022-08-18T14:36:20.470Z,94335.97
2022-08-18T14:39:01.310Z,94333.38
2022-08-18T14:41:29.347Z,94339.50
2022-08-18T14:44:13.261Z,94339.91
2022-08-18T14:46:43.358Z,94349.75
2022-08-18T14:49:28.123Z,94343.41
2022-08-18T14:51:57.821Z,94333.59
2022-08-18T14:54:28.302Z,94333.09
2022-08-18T14:56:56.204Z,94328.66
2022-08-18T14:59:25.012Z,94326.72
2022-08-18T15:01:53.402Z,94308.88
2022-08-18T15:04:22.933Z,94299.91
2022-08-18T15:06:56.826Z,94285.81
2022-08-18T15:09:30.140Z,94279.44
2022-08-18T15:11:59.488Z,94274.97
2022-08-18T15:14:35.337Z,94272.81
2022-08-18T15:17:11.739Z,94267.88
2022-08-18T15:19:59.555Z,94263.38
2022-08-18T15:22:47.780Z,94261.00
2022-08-18T15:25:34.048Z,94259.59
2022-08-18T15:28:01.433Z,94257.31
2022-08-18T15:30:29.273Z,94260.50
2022-08-18T15:32:59.002Z,94262.91
2022-08-18T15:35:32.057Z,94260.16
2022-08-18T15:38:01.000Z,94274.19
2022-08-18T15:40:41.200Z,94267.31
2022-08-18T15:43:09.795Z,94262.34
2022-08-18T15:45:43.410Z,94259.69
2022-08-18T15:48:25.603Z,94258.41
2022-08-18T15:50:52.805Z,94258.69
2022-08-18T15:53:25.494Z,94257.31
2022-08-18T15:55:58.151Z,94255.13
2022-08-18T15:58:26.834Z,94249.78
2022-08-18T16:00:58.900Z,94251.81
2022-08-18T16:03:26.403Z,94267.13
2022-08-18T16:05:55.529Z,94296.38
2022-08-18T16:08:25.401Z,94319.75
2022-08-18T16:10:54.364Z,94345.56
2022-08-18T16:13:24.547Z,94346.41
2022-08-18T16:15:52.266Z,94373.91
2022-08-18T16:18:21.091Z,94378.25
2022-08-18T16:20:50.641Z,94357.31
2022-08-18T16:23:20.373Z,94358.81
2022-08-18T16:25:47.386Z,94352.19
2022-08-18T16:28:14.554Z,94337.78
2022-08-18T16:30:42.133Z,94341.19
2022-08-18T16:33:09.479Z,94334.09
2022-08-18T16:35:37.533Z,94314.16
2022-08-18T16:38:09.457Z,94310.72
2022-08-18T16:40:38.232Z,94293.50
2022-08-18T16:43:07.413Z,94289.50
2022-08-18T16:45:37.703Z,94276.88
2022-08-18T16:48:08.331Z,94278.06
2022-08-18T16:50:37.722Z,94246.00
2022-08-18T16:53:06.004Z,94248.78
2022-08-18T16:55:34.191Z,94215.19
2022-08-18T16:58:19.769Z,94181.41
2022-08-18T17:01:05.144Z,94161.03
2022-08-18T17:03:51.193Z,94172.09
2022-08-18T17:06:20.181Z,94195.81
2022-08-18T17:08:47.355Z,94245.53
2022-08-18T17:11:18.880Z,94237.81
2022-08-18T17:13:48.789Z,94219.09
2022-08-18T17:16:18.096Z,94260.41
2022-08-18T17:18:46.276Z,94236.31
2022-08-18T17:21:19.436Z,94251.06
2022-08-18T17:23:48.288Z,94233.00
2022-08-18T17:26:34.920Z,94248.22
2022-08-18T17:29:33.320Z,94262.13
2022-08-18T17:32:06.258Z,94253.53
2022-08-18T17:34:51.879Z,94252.44
2022-08-18T17:37:21.793Z,94245.13
2022-08-18T17:40:00.735Z,94247.47
2022-08-18T17:42:32.393Z,94244.78
2022-08-18T17:45:05.984Z,94254.44
2022-08-18T17:47:38.701Z,94252.81
2022-08-18T17:50:39.372Z,94274.16
2022-08-18T17:53:06.945Z,94264.47
2022-08-18T17:55:48.001Z,94279.91
2022-08-18T17:58:50.616Z,94266.25
2022-08-18T18:01:18.258Z,94271.09
2022-08-18T18:03:45.636Z,94272.03
2022-08-18T18:06:39.269Z,94276.59
2022-08-18T18:09:31.096Z,94277.63
2022-08-18T18:12:20.393Z,94263.66
2022-08-18T18:14:47.350Z,94263.56
2022-08-18T18:17:18.724Z,94271.53
2022-08-18T18:19:49.892Z,94266.09
2022-08-18T18:22:24.965Z,94271.09
2022-08-18T18:25:00.069Z,94263.00
2022-08-18T18:27:43.734Z,94255.97
2022-08-18T18:30:23.907Z,94263.31
2022-08-18T18:33:14.255Z,94257.09
2022-08-18T18:35:54.906Z,94258.63
2022-08-18T18:39:06.476Z,94254.31
2022-08-18T18:41:36.914Z,94260.78
2022-08-18T18:44:10.859Z,94254.75
2022-08-18T18:46:45.898Z,94255.75
2022-08-18T18:49:19.419Z,94256.84
2022-08-18T18:52:49.859Z,94257.03
2022-08-18T18:55:26.041Z,94254.38
2022-08-18T18:58:22.734Z,94252.78
2022-08-18T19:01:00.275Z,94255.88
2022-08-18T19:03:41.863Z,94250.09
2022-08-18T19:06:28.538Z,94249.56
2022-08-18T19:09:39.408Z,94242.19
2022-08-18T19:12:20.938Z,94247.66
2022-08-18T19:15:00.185Z,94250.44
2022-08-18T19:17:41.920Z,94251.03
2022-08-18T19:20:17.257Z,94242.56
2022-08-18T19:23:04.403Z,94258.38
2022-08-18T19:25:36.077Z,94259.56
2022-08-18T19:28:14.881Z,94260.13
2022-08-18T19:30:48.284Z,94254.88
2022-08-18T19:33:26.078Z,94254.38
2022-08-18T19:36:18.658Z,94256.84
2022-08-18T19:38:55.530Z,94255.03
2022-08-18T19:41:55.513Z,94252.44
2022-08-18T19:45:13.056Z,94250.22
2022-08-18T19:47:51.831Z,94253.75
2022-08-18T19:50:21.829Z,94246.59
2022-08-18T19:53:15.907Z,94250.16
2022-08-18T19:56:04.613Z,94253.00
2022-08-18T19:59:15.763Z,94265.44
2022-08-18T20:02:00.972Z,94264.22
2022-08-18T20:04:59.571Z,94259.00
2022-08-18T20:07:55.683Z,94268.56
2022-08-18T20:10:35.174Z,94264.91
2022-08-18T20:13:27.864Z,94264.50
2022-08-18T20:16:13.125Z,94273.16
2022-08-18T20:18:50.266Z,94269.81
2022-08-18T20:21:18.206Z,94271.72
2022-08-18T20:24:26.126Z,94275.09
2022-08-18T20:26:53.561Z,94281.88
2022-08-18T20:29:43.438Z,94280.63
2022-08-18T20:32:31.531Z,94271.91
2022-08-18T20:35:32.925Z,94275.44
2022-08-18T20:38:27.004Z,94292.59
2022-08-18T20:40:55.505Z,94282.75
2022-08-18T20:43:27.742Z,94286.25
2022-08-18T20:46:25.131Z,94295.38
2022-08-18T20:49:10.109Z,94297.59
2022-08-18T20:52:15.073Z,94301.66
2022-08-18T20:55:00.716Z,94293.94
2022-08-18T20:57:38.988Z,94297.47
2022-08-18T21:00:27.153Z,94299.38
2022-08-18T21:03:00.412Z,94300.19
2022-08-18T21:05:35.488Z,94301.84
2022-08-18T21:08:16.273Z,94307.72
2022-08-18T21:11:21.423Z,94303.50
2022-08-18T21:14:04.027Z,94303.25
2022-08-18T21:16:40.621Z,94300.03
2022-08-18T21:19:28.968Z,94316.34
2022-08-18T21:22:01.285Z,94317.69
2022-08-18T21:24:42.470Z,94313.97
2022-08-18T21:27:26.473Z,94309.97
2022-08-18T21:30:04.441Z,94309.97
2022-08-18T21:32:37.101Z,94315.59
2022-08-18T21:35:28.632Z,94314.00
2022-08-18T21:38:11.085Z,94318.31
2022-08-18T21:40:57.132Z,94319.38
2022-08-18T21:43:49.143Z,94319.41
2022-08-18T21:46:29.927Z,94321.25
2022-08-18T21:49:01.754Z,94321.25
2022-08-18T21:51:43.164Z,94324.47
2022-08-18T21:54:10.681Z,94330.09
2022-08-18T21:56:38.096Z,94330.63
2022-08-18T21:59:09.683Z,94342.91
2022-08-18T22:01:48.117Z,94344.25
2022-08-18T22:04:24.281Z,94348.25
2022-08-18T22:06:59.085Z,94354.13
2022-08-18T22:09:49.696Z,94338.41
2022-08-18T22:12:42.786Z,94336.56
2022-08-18T22:15:28.002Z,94348.06
2022-08-18T22:18:03.069Z,94349.16
2022-08-18T22:20:45.267Z,94359.00
2022-08-18T22:23:30.485Z,94361.41
2022-08-18T22:26:16.492Z,94370.22
2022-08-18T22:29:34.155Z,94367.00
2022-08-18T22:32:03.615Z,94357.38
2022-08-18T22:34:34.263Z,94370.72
2022-08-18T22:37:18.313Z,94375.81
2022-08-18T22:40:00.913Z,94383.53
2022-08-18T22:42:34.501Z,94388.06
2022-08-18T22:45:07.118Z,94374.19
2022-08-18T22:47:43.128Z,94371.00
2022-08-18T22:50:13.870Z,94368.09
2022-08-18T22:52:48.275Z,94359.28
2022-08-18T22:55:22.080Z,94362.50
2022-08-18T22:57:54.767Z,94361.16
2022-08-18T23:00:23.989Z,94358.75
2022-08-18T23:05:20.396Z,94346.00
2022-08-18T23:07:47.704Z,94330.25
2022-08-18T23:10:16.588Z,94337.19
2022-08-18T23:12:45.061Z,94336.13
2022-08-18T23:15:12.781Z,94331.63
2022-08-18T23:17:41.648Z,94332.41
2022-08-18T23:20:17.851Z,94346.00
2022-08-18T23:22:48.169Z,94340.66
2022-08-18T23:25:16.045Z,94335.84
2022-08-18T23:27:43.288Z,94349.44
2022-08-18T23:30:12.548Z,94348.13
2022-08-18T23:32:39.865Z,94345.72
2022-08-18T23:35:07.168Z,94326.56
2022-08-18T23:37:34.162Z,94327.31
2022-08-18T23:40:01.436Z,94317.22
2022-08-18T23:42:28.483Z,94320.69
2022-08-18T23:45:04.035Z,94312.44
2022-08-18T23:47:31.356Z,94287.66
2022-08-18T23:49:58.593Z,94265.00
2022-08-18T23:52:25.778Z,94271.69
2022-08-18T23:54:52.723Z,94273.84
2022-08-18T23:57:20.021Z,94274.09
2022-08-18T23:59:47.089Z,94280.47
